sensor_id;sensor_type;location;lat;lon;timestamp;P1;durP1;ratioP1;P2;durP2;ratioP2
3708;SDS011;1870;53.996;10.784;2023-09-19T00:00:34;2.83;;;2.63;;
3708;SDS011;1870;53.996;10.784;2023-09-19T00:03:00;3.13;;;2.83;;
3708;SDS011;1870;53.996;10.784;2023-09-19T00:05:26;3.00;;;2.80;;
3708;SDS011;1870;53.996;10.784;2023-09-19T00:07:54;2.80;;;2.60;;
3708;SDS011;1870;53.996;10.784;2023-09-19T00:10:23;3.10;;;2.90;;
3708;SDS011;1870;53.996;10.784;2023-09-19T00:12:52;2.90;;;2.70;;
3708;SDS011;1870;53.996;10.784;2023-09-19T00:15:20;5.53;;;3.13;;
3708;SDS011;1870;53.996;10.784;2023-09-19T00:17:46;2.97;;;2.63;;
3708;SDS011;1870;53.996;10.784;2023-09-19T00:20:13;3.00;;;2.80;;
3708;SDS011;1870;53.996;10.784;2023-09-19T00:22:42;3.40;;;3.10;;
3708;SDS011;1870;53.996;10.784;2023-09-19T00:25:08;2.70;;;2.60;;
3708;SDS011;1870;53.996;10.784;2023-09-19T00:27:35;3.83;;;3.00;;
3708;SDS011;1870;53.996;10.784;2023-09-19T00:30:04;3.10;;;2.90;;
3708;SDS011;1870;53.996;10.784;2023-09-19T00:32:30;3.60;;;3.30;;
3708;SDS011;1870;53.996;10.784;2023-09-19T00:34:56;3.30;;;2.90;;
3708;SDS011;1870;53.996;10.784;2023-09-19T00:37:21;4.30;;;2.60;;
3708;SDS011;1870;53.996;10.784;2023-09-19T00:39:47;3.40;;;2.60;;
3708;SDS011;1870;53.996;10.784;2023-09-19T00:42:22;5.00;;;2.83;;
3708;SDS011;1870;53.996;10.784;2023-09-19T00:44:47;4.40;;;3.10;;
3708;SDS011;1870;53.996;10.784;2023-09-19T00:47:16;4.47;;;2.83;;
3708;SDS011;1870;53.996;10.784;2023-09-19T00:49:43;3.27;;;2.97;;
3708;SDS011;1870;53.996;10.784;2023-09-19T00:52:14;4.10;;;3.77;;
3708;SDS011;1870;53.996;10.784;2023-09-19T00:54:40;4.20;;;3.40;;
3708;SDS011;1870;53.996;10.784;2023-09-19T00:57:06;3.60;;;3.30;;
3708;SDS011;1870;53.996;10.784;2023-09-19T00:59:33;4.80;;;3.70;;
3708;SDS011;1870;53.996;10.784;2023-09-19T01:02:00;4.10;;;3.80;;
3708;SDS011;1870;53.996;10.784;2023-09-19T01:04:28;6.93;;;3.30;;
3708;SDS011;1870;53.996;10.784;2023-09-19T01:06:53;4.00;;;3.60;;
3708;SDS011;1870;53.996;10.784;2023-09-19T01:09:20;3.53;;;3.23;;
3708;SDS011;1870;53.996;10.784;2023-09-19T01:11:47;3.40;;;3.13;;
3708;SDS011;1870;53.996;10.784;2023-09-19T01:17:03;3.73;;;2.90;;
3708;SDS011;1870;53.996;10.784;2023-09-19T01:19:42;3.40;;;3.10;;
3708;SDS011;1870;53.996;10.784;2023-09-19T01:22:18;5.37;;;3.70;;
3708;SDS011;1870;53.996;10.784;2023-09-19T01:24:58;4.60;;;3.57;;
3708;SDS011;1870;53.996;10.784;2023-09-19T01:30:14;5.70;;;3.27;;
3708;SDS011;1870;53.996;10.784;2023-09-19T01:32:47;7.70;;;3.60;;
3708;SDS011;1870;53.996;10.784;2023-09-19T01:35:17;4.03;;;3.63;;
3708;SDS011;1870;53.996;10.784;2023-09-19T01:37:43;4.43;;;3.80;;
3708;SDS011;1870;53.996;10.784;2023-09-19T01:40:10;4.43;;;4.03;;
3708;SDS011;1870;53.996;10.784;2023-09-19T01:42:48;4.23;;;3.93;;
3708;SDS011;1870;53.996;10.784;2023-09-19T01:48:05;4.07;;;3.77;;
3708;SDS011;1870;53.996;10.784;2023-09-19T01:56:29;4.77;;;4.37;;
3708;SDS011;1870;53.996;10.784;2023-09-19T01:59:02;8.57;;;3.57;;
3708;SDS011;1870;53.996;10.784;2023-09-19T02:01:32;4.30;;;3.77;;
3708;SDS011;1870;53.996;10.784;2023-09-19T02:03:58;4.23;;;3.93;;
3708;SDS011;1870;53.996;10.784;2023-09-19T02:06:24;9.53;;;4.97;;
3708;SDS011;1870;53.996;10.784;2023-09-19T02:08:50;4.20;;;3.90;;
3708;SDS011;1870;53.996;10.784;2023-09-19T02:11:16;4.40;;;4.00;;
3708;SDS011;1870;53.996;10.784;2023-09-19T02:13:41;4.87;;;4.20;;
3708;SDS011;1870;53.996;10.784;2023-09-19T02:16:07;5.90;;;5.40;;
3708;SDS011;1870;53.996;10.784;2023-09-19T02:18:35;6.20;;;4.70;;
3708;SDS011;1870;53.996;10.784;2023-09-19T02:21:01;5.73;;;5.03;;
3708;SDS011;1870;53.996;10.784;2023-09-19T02:23:29;7.03;;;5.23;;
3708;SDS011;1870;53.996;10.784;2023-09-19T02:25:55;12.10;;;6.40;;
3708;SDS011;1870;53.996;10.784;2023-09-19T02:28:25;11.60;;;5.43;;
3708;SDS011;1870;53.996;10.784;2023-09-19T02:30:55;6.10;;;5.70;;
3708;SDS011;1870;53.996;10.784;2023-09-19T02:33:21;6.73;;;6.10;;
3708;SDS011;1870;53.996;10.784;2023-09-19T02:35:47;6.53;;;5.50;;
3708;SDS011;1870;53.996;10.784;2023-09-19T02:38:12;8.03;;;5.33;;
3708;SDS011;1870;53.996;10.784;2023-09-19T02:40:39;9.57;;;7.10;;
3708;SDS011;1870;53.996;10.784;2023-09-19T02:43:05;9.43;;;6.40;;
3708;SDS011;1870;53.996;10.784;2023-09-19T02:45:32;6.67;;;6.10;;
3708;SDS011;1870;53.996;10.784;2023-09-19T02:47:57;6.13;;;5.50;;
3708;SDS011;1870;53.996;10.784;2023-09-19T02:50:23;14.53;;;6.97;;
3708;SDS011;1870;53.996;10.784;2023-09-19T02:52:49;6.30;;;5.87;;
3708;SDS011;1870;53.996;10.784;2023-09-19T02:55:18;6.53;;;5.80;;
3708;SDS011;1870;53.996;10.784;2023-09-19T02:57:48;6.67;;;5.63;;
3708;SDS011;1870;53.996;10.784;2023-09-19T03:00:19;7.50;;;6.10;;
3708;SDS011;1870;53.996;10.784;2023-09-19T03:02:46;6.30;;;5.73;;
3708;SDS011;1870;53.996;10.784;2023-09-19T03:05:15;6.73;;;6.23;;
3708;SDS011;1870;53.996;10.784;2023-09-19T03:07:41;7.33;;;5.73;;
3708;SDS011;1870;53.996;10.784;2023-09-19T03:10:08;6.80;;;6.20;;
3708;SDS011;1870;53.996;10.784;2023-09-19T03:12:34;6.63;;;5.57;;
3708;SDS011;1870;53.996;10.784;2023-09-19T03:15:00;11.00;;;6.00;;
3708;SDS011;1870;53.996;10.784;2023-09-19T03:17:26;6.37;;;5.87;;
3708;SDS011;1870;53.996;10.784;2023-09-19T03:19:52;8.57;;;5.73;;
3708;SDS011;1870;53.996;10.784;2023-09-19T03:22:19;7.97;;;6.00;;
3708;SDS011;1870;53.996;10.784;2023-09-19T03:24:44;5.80;;;5.30;;
3708;SDS011;1870;53.996;10.784;2023-09-19T03:27:12;9.17;;;5.73;;
3708;SDS011;1870;53.996;10.784;2023-09-19T03:29:39;6.00;;;5.50;;
3708;SDS011;1870;53.996;10.784;2023-09-19T03:32:05;10.27;;;6.93;;
3708;SDS011;1870;53.996;10.784;2023-09-19T03:34:30;6.00;;;5.60;;
3708;SDS011;1870;53.996;10.784;2023-09-19T03:36:56;6.43;;;5.80;;
3708;SDS011;1870;53.996;10.784;2023-09-19T03:39:22;7.20;;;5.10;;
3708;SDS011;1870;53.996;10.784;2023-09-19T03:41:48;7.13;;;4.97;;
3708;SDS011;1870;53.996;10.784;2023-09-19T03:44:14;4.30;;;3.93;;
3708;SDS011;1870;53.996;10.784;2023-09-19T03:46:40;4.20;;;3.90;;
3708;SDS011;1870;53.996;10.784;2023-09-19T03:49:06;4.73;;;3.90;;
3708;SDS011;1870;53.996;10.784;2023-09-19T03:51:31;7.10;;;4.20;;
3708;SDS011;1870;53.996;10.784;2023-09-19T03:53:59;6.53;;;4.07;;
3708;SDS011;1870;53.996;10.784;2023-09-19T03:56:25;5.67;;;4.07;;
3708;SDS011;1870;53.996;10.784;2023-09-19T03:58:50;8.73;;;4.70;;
3708;SDS011;1870;53.996;10.784;2023-09-19T04:01:16;6.57;;;5.03;;
3708;SDS011;1870;53.996;10.784;2023-09-19T04:03:43;7.67;;;6.87;;
3708;SDS011;1870;53.996;10.784;2023-09-19T04:06:15;7.50;;;5.10;;
3708;SDS011;1870;53.996;10.784;2023-09-19T04:08:42;6.63;;;5.23;;
3708;SDS011;1870;53.996;10.784;2023-09-19T04:11:09;5.83;;;5.37;;
3708;SDS011;1870;53.996;10.784;2023-09-19T04:13:35;6.70;;;5.10;;
3708;SDS011;1870;53.996;10.784;2023-09-19T04:16:01;4.70;;;4.40;;
3708;SDS011;1870;53.996;10.784;2023-09-19T04:18:29;5.97;;;5.27;;
3708;SDS011;1870;53.996;10.784;2023-09-19T04:20:57;7.47;;;5.83;;
3708;SDS011;1870;53.996;10.784;2023-09-19T04:23:23;5.70;;;5.20;;
3708;SDS011;1870;53.996;10.784;2023-09-19T04:25:49;7.00;;;6.50;;
3708;SDS011;1870;53.996;10.784;2023-09-19T04:28:15;9.87;;;6.90;;
3708;SDS011;1870;53.996;10.784;2023-09-19T04:30:41;9.03;;;6.40;;
3708;SDS011;1870;53.996;10.784;2023-09-19T04:33:07;8.37;;;5.07;;
3708;SDS011;1870;53.996;10.784;2023-09-19T04:35:34;5.33;;;4.70;;
3708;SDS011;1870;53.996;10.784;2023-09-19T04:38:00;5.27;;;4.30;;
3708;SDS011;1870;53.996;10.784;2023-09-19T04:40:28;4.97;;;4.47;;
3708;SDS011;1870;53.996;10.784;2023-09-19T04:42:54;10.13;;;4.53;;
3708;SDS011;1870;53.996;10.784;2023-09-19T04:45:24;7.73;;;3.93;;
3708;SDS011;1870;53.996;10.784;2023-09-19T04:47:51;3.93;;;3.37;;
3708;SDS011;1870;53.996;10.784;2023-09-19T04:50:18;4.43;;;3.67;;
3708;SDS011;1870;53.996;10.784;2023-09-19T04:52:44;9.53;;;4.17;;
3708;SDS011;1870;53.996;10.784;2023-09-19T04:55:13;9.00;;;4.67;;
3708;SDS011;1870;53.996;10.784;2023-09-19T04:57:45;6.67;;;3.80;;
3708;SDS011;1870;53.996;10.784;2023-09-19T05:00:16;4.80;;;4.00;;
3708;SDS011;1870;53.996;10.784;2023-09-19T05:02:44;8.43;;;3.73;;
3708;SDS011;1870;53.996;10.784;2023-09-19T05:05:14;4.53;;;3.70;;
3708;SDS011;1870;53.996;10.784;2023-09-19T05:07:44;4.20;;;3.80;;
3708;SDS011;1870;53.996;10.784;2023-09-19T05:10:10;9.43;;;4.17;;
3708;SDS011;1870;53.996;10.784;2023-09-19T05:12:37;4.73;;;3.63;;
3708;SDS011;1870;53.996;10.784;2023-09-19T05:15:03;9.70;;;3.90;;
3708;SDS011;1870;53.996;10.784;2023-09-19T05:17:30;4.80;;;3.50;;
3708;SDS011;1870;53.996;10.784;2023-09-19T05:19:56;5.93;;;4.60;;
3708;SDS011;1870;53.996;10.784;2023-09-19T05:22:23;7.97;;;4.20;;
3708;SDS011;1870;53.996;10.784;2023-09-19T05:24:51;7.87;;;3.70;;
3708;SDS011;1870;53.996;10.784;2023-09-19T05:27:18;8.00;;;3.70;;
3708;SDS011;1870;53.996;10.784;2023-09-19T05:29:46;6.43;;;3.80;;
3708;SDS011;1870;53.996;10.784;2023-09-19T05:32:12;6.70;;;3.50;;
3708;SDS011;1870;53.996;10.784;2023-09-19T05:34:38;8.70;;;4.70;;
3708;SDS011;1870;53.996;10.784;2023-09-19T05:37:04;8.20;;;4.30;;
3708;SDS011;1870;53.996;10.784;2023-09-19T05:39:33;8.00;;;4.13;;
3708;SDS011;1870;53.996;10.784;2023-09-19T05:41:59;6.67;;;3.70;;
3708;SDS011;1870;53.996;10.784;2023-09-19T05:44:28;4.50;;;3.30;;
3708;SDS011;1870;53.996;10.784;2023-09-19T05:46:54;7.70;;;3.63;;
3708;SDS011;1870;53.996;10.784;2023-09-19T05:49:21;11.53;;;3.87;;
3708;SDS011;1870;53.996;10.784;2023-09-19T05:51:47;6.20;;;3.10;;
3708;SDS011;1870;53.996;10.784;2023-09-19T05:54:13;4.90;;;2.67;;
3708;SDS011;1870;53.996;10.784;2023-09-19T05:56:41;3.40;;;2.93;;
3708;SDS011;1870;53.996;10.784;2023-09-19T05:59:07;11.53;;;3.67;;
3708;SDS011;1870;53.996;10.784;2023-09-19T06:01:32;8.90;;;3.50;;
3708;SDS011;1870;53.996;10.784;2023-09-19T06:03:59;4.20;;;3.20;;
3708;SDS011;1870;53.996;10.784;2023-09-19T06:06:25;5.07;;;3.50;;
3708;SDS011;1870;53.996;10.784;2023-09-19T06:08:51;11.20;;;4.53;;
3708;SDS011;1870;53.996;10.784;2023-09-19T06:11:17;6.00;;;4.00;;
3708;SDS011;1870;53.996;10.784;2023-09-19T06:13:45;5.70;;;4.00;;
3708;SDS011;1870;53.996;10.784;2023-09-19T06:16:12;4.70;;;3.60;;
3708;SDS011;1870;53.996;10.784;2023-09-19T06:18:38;10.70;;;4.70;;
3708;SDS011;1870;53.996;10.784;2023-09-19T06:21:04;4.60;;;3.23;;
3708;SDS011;1870;53.996;10.784;2023-09-19T06:23:33;6.43;;;3.83;;
3708;SDS011;1870;53.996;10.784;2023-09-19T06:26:00;6.70;;;3.20;;
3708;SDS011;1870;53.996;10.784;2023-09-19T06:28:26;7.00;;;3.30;;
3708;SDS011;1870;53.996;10.784;2023-09-19T06:30:53;5.00;;;3.97;;
3708;SDS011;1870;53.996;10.784;2023-09-19T06:33:19;6.53;;;3.33;;
3708;SDS011;1870;53.996;10.784;2023-09-19T06:35:46;7.27;;;4.10;;
3708;SDS011;1870;53.996;10.784;2023-09-19T06:38:13;8.00;;;3.77;;
3708;SDS011;1870;53.996;10.784;2023-09-19T06:40:40;7.23;;;3.73;;
3708;SDS011;1870;53.996;10.784;2023-09-19T06:43:08;9.67;;;2.93;;
3708;SDS011;1870;53.996;10.784;2023-09-19T06:45:35;14.27;;;3.53;;
3708;SDS011;1870;53.996;10.784;2023-09-19T06:48:02;12.90;;;3.70;;
3708;SDS011;1870;53.996;10.784;2023-09-19T06:50:29;6.03;;;3.13;;
3708;SDS011;1870;53.996;10.784;2023-09-19T06:52:55;8.73;;;3.90;;
3708;SDS011;1870;53.996;10.784;2023-09-19T06:55:24;5.97;;;3.00;;
3708;SDS011;1870;53.996;10.784;2023-09-19T06:57:53;3.83;;;3.27;;
3708;SDS011;1870;53.996;10.784;2023-09-19T07:00:21;6.77;;;3.73;;
3708;SDS011;1870;53.996;10.784;2023-09-19T07:02:57;6.73;;;3.27;;
3708;SDS011;1870;53.996;10.784;2023-09-19T07:05:29;4.77;;;3.27;;
3708;SDS011;1870;53.996;10.784;2023-09-19T07:07:56;8.70;;;3.63;;
3708;SDS011;1870;53.996;10.784;2023-09-19T07:10:24;9.40;;;3.37;;
3708;SDS011;1870;53.996;10.784;2023-09-19T07:15:21;8.50;;;3.73;;
3708;SDS011;1870;53.996;10.784;2023-09-19T07:17:48;5.20;;;3.30;;
3708;SDS011;1870;53.996;10.784;2023-09-19T07:20:13;8.33;;;3.23;;
3708;SDS011;1870;53.996;10.784;2023-09-19T07:22:41;12.30;;;5.20;;
3708;SDS011;1870;53.996;10.784;2023-09-19T07:25:07;4.80;;;3.97;;
3708;SDS011;1870;53.996;10.784;2023-09-19T07:27:33;11.57;;;5.07;;
3708;SDS011;1870;53.996;10.784;2023-09-19T07:29:58;5.83;;;3.70;;
3708;SDS011;1870;53.996;10.784;2023-09-19T07:32:24;9.53;;;3.97;;
3708;SDS011;1870;53.996;10.784;2023-09-19T07:34:51;8.27;;;5.60;;
3708;SDS011;1870;53.996;10.784;2023-09-19T07:37:17;8.23;;;4.60;;
3708;SDS011;1870;53.996;10.784;2023-09-19T07:39:43;14.70;;;4.67;;
3708;SDS011;1870;53.996;10.784;2023-09-19T07:42:09;15.13;;;4.93;;
3708;SDS011;1870;53.996;10.784;2023-09-19T07:44:36;11.20;;;4.53;;
3708;SDS011;1870;53.996;10.784;2023-09-19T07:47:02;6.70;;;4.30;;
3708;SDS011;1870;53.996;10.784;2023-09-19T07:49:28;10.30;;;4.27;;
3708;SDS011;1870;53.996;10.784;2023-09-19T07:51:54;7.70;;;4.20;;
3708;SDS011;1870;53.996;10.784;2023-09-19T07:54:21;7.80;;;4.73;;
3708;SDS011;1870;53.996;10.784;2023-09-19T07:56:47;8.40;;;4.57;;
3708;SDS011;1870;53.996;10.784;2023-09-19T07:59:12;9.10;;;6.77;;
3708;SDS011;1870;53.996;10.784;2023-09-19T08:01:38;5.17;;;4.27;;
3708;SDS011;1870;53.996;10.784;2023-09-19T08:04:06;10.87;;;3.93;;
3708;SDS011;1870;53.996;10.784;2023-09-19T08:06:35;5.30;;;4.00;;
3708;SDS011;1870;53.996;10.784;2023-09-19T08:09:03;8.40;;;4.20;;
3708;SDS011;1870;53.996;10.784;2023-09-19T08:11:32;14.77;;;4.77;;
3708;SDS011;1870;53.996;10.784;2023-09-19T08:13:58;9.83;;;4.60;;
3708;SDS011;1870;53.996;10.784;2023-09-19T08:16:24;5.70;;;3.73;;
3708;SDS011;1870;53.996;10.784;2023-09-19T08:18:50;4.13;;;3.70;;
3708;SDS011;1870;53.996;10.784;2023-09-19T08:21:21;11.57;;;5.73;;
3708;SDS011;1870;53.996;10.784;2023-09-19T08:23:49;10.60;;;3.63;;
3708;SDS011;1870;53.996;10.784;2023-09-19T08:26:15;9.10;;;3.90;;
3708;SDS011;1870;53.996;10.784;2023-09-19T08:28:40;5.20;;;3.30;;
3708;SDS011;1870;53.996;10.784;2023-09-19T08:31:07;14.03;;;5.27;;
3708;SDS011;1870;53.996;10.784;2023-09-19T08:33:34;6.63;;;4.73;;
3708;SDS011;1870;53.996;10.784;2023-09-19T08:36:00;8.23;;;4.87;;
3708;SDS011;1870;53.996;10.784;2023-09-19T08:38:30;9.40;;;4.77;;
3708;SDS011;1870;53.996;10.784;2023-09-19T08:40:58;9.70;;;4.70;;
3708;SDS011;1870;53.996;10.784;2023-09-19T08:43:24;7.60;;;4.73;;
3708;SDS011;1870;53.996;10.784;2023-09-19T08:45:53;8.97;;;5.57;;
3708;SDS011;1870;53.996;10.784;2023-09-19T08:48:28;7.93;;;4.60;;
3708;SDS011;1870;53.996;10.784;2023-09-19T08:54:06;5.97;;;4.70;;
3708;SDS011;1870;53.996;10.784;2023-09-19T08:56:33;9.50;;;4.53;;
3708;SDS011;1870;53.996;10.784;2023-09-19T08:59:05;8.00;;;3.80;;
3708;SDS011;1870;53.996;10.784;2023-09-19T09:01:34;13.50;;;4.27;;
3708;SDS011;1870;53.996;10.784;2023-09-19T09:04:01;13.03;;;4.83;;
3708;SDS011;1870;53.996;10.784;2023-09-19T09:06:27;6.50;;;5.00;;
3708;SDS011;1870;53.996;10.784;2023-09-19T09:08:54;12.27;;;5.30;;
3708;SDS011;1870;53.996;10.784;2023-09-19T09:11:20;8.87;;;5.77;;
3708;SDS011;1870;53.996;10.784;2023-09-19T09:13:48;5.87;;;3.90;;
3708;SDS011;1870;53.996;10.784;2023-09-19T09:16:14;7.30;;;4.47;;
3708;SDS011;1870;53.996;10.784;2023-09-19T09:18:43;6.97;;;4.30;;
3708;SDS011;1870;53.996;10.784;2023-09-19T09:21:10;8.90;;;4.40;;
3708;SDS011;1870;53.996;10.784;2023-09-19T09:23:36;12.77;;;5.43;;
3708;SDS011;1870;53.996;10.784;2023-09-19T09:26:03;8.27;;;3.70;;
3708;SDS011;1870;53.996;10.784;2023-09-19T09:28:31;9.23;;;3.73;;
3708;SDS011;1870;53.996;10.784;2023-09-19T09:30:59;5.07;;;3.20;;
3708;SDS011;1870;53.996;10.784;2023-09-19T09:33:33;4.60;;;3.60;;
3708;SDS011;1870;53.996;10.784;2023-09-19T09:35:59;8.00;;;3.73;;
3708;SDS011;1870;53.996;10.784;2023-09-19T09:38:27;9.70;;;4.73;;
3708;SDS011;1870;53.996;10.784;2023-09-19T09:41:13;6.37;;;4.57;;
3708;SDS011;1870;53.996;10.784;2023-09-19T09:43:52;7.70;;;3.70;;
3708;SDS011;1870;53.996;10.784;2023-09-19T09:46:19;5.90;;;3.80;;
3708;SDS011;1870;53.996;10.784;2023-09-19T09:48:47;10.17;;;5.83;;
3708;SDS011;1870;53.996;10.784;2023-09-19T09:51:33;9.33;;;4.40;;
3708;SDS011;1870;53.996;10.784;2023-09-19T09:54:14;9.20;;;4.70;;
3708;SDS011;1870;53.996;10.784;2023-09-19T09:56:57;5.80;;;4.97;;
3708;SDS011;1870;53.996;10.784;2023-09-19T10:02:18;14.37;;;5.23;;
3708;SDS011;1870;53.996;10.784;2023-09-19T10:04:57;7.53;;;4.63;;
3708;SDS011;1870;53.996;10.784;2023-09-19T10:07:35;6.50;;;4.13;;
3708;SDS011;1870;53.996;10.784;2023-09-19T10:10:03;17.73;;;6.33;;
3708;SDS011;1870;53.996;10.784;2023-09-19T10:12:42;12.47;;;7.07;;
3708;SDS011;1870;53.996;10.784;2023-09-19T10:15:13;9.43;;;5.60;;
3708;SDS011;1870;53.996;10.784;2023-09-19T10:17:44;7.90;;;3.90;;
3708;SDS011;1870;53.996;10.784;2023-09-19T10:20:14;9.70;;;4.03;;
3708;SDS011;1870;53.996;10.784;2023-09-19T10:23:17;5.13;;;4.10;;
3708;SDS011;1870;53.996;10.784;2023-09-19T10:25:51;9.87;;;4.90;;
3708;SDS011;1870;53.996;10.784;2023-09-19T10:28:17;9.77;;;3.63;;
3708;SDS011;1870;53.996;10.784;2023-09-19T10:30:50;10.37;;;3.73;;
3708;SDS011;1870;53.996;10.784;2023-09-19T10:33:17;10.40;;;4.17;;
3708;SDS011;1870;53.996;10.784;2023-09-19T10:35:48;14.33;;;5.43;;
3708;SDS011;1870;53.996;10.784;2023-09-19T10:38:19;14.97;;;4.47;;
3708;SDS011;1870;53.996;10.784;2023-09-19T10:40:50;8.93;;;4.13;;
3708;SDS011;1870;53.996;10.784;2023-09-19T10:43:17;10.13;;;3.97;;
3708;SDS011;1870;53.996;10.784;2023-09-19T10:45:45;9.27;;;5.13;;
3708;SDS011;1870;53.996;10.784;2023-09-19T10:48:14;10.67;;;3.50;;
3708;SDS011;1870;53.996;10.784;2023-09-19T10:53:32;7.03;;;3.53;;
3708;SDS011;1870;53.996;10.784;2023-09-19T10:56:19;7.17;;;4.80;;
3708;SDS011;1870;53.996;10.784;2023-09-19T10:59:04;11.33;;;3.93;;
3708;SDS011;1870;53.996;10.784;2023-09-19T11:01:45;8.80;;;4.03;;
3708;SDS011;1870;53.996;10.784;2023-09-19T11:04:31;15.27;;;4.00;;
3708;SDS011;1870;53.996;10.784;2023-09-19T11:07:08;12.27;;;4.90;;
3708;SDS011;1870;53.996;10.784;2023-09-19T11:09:56;11.60;;;3.50;;
3708;SDS011;1870;53.996;10.784;2023-09-19T11:15:10;15.67;;;3.37;;
3708;SDS011;1870;53.996;10.784;2023-09-19T11:19:00;9.57;;;3.60;;
3708;SDS011;1870;53.996;10.784;2023-09-19T11:26:41;6.87;;;3.20;;
3708;SDS011;1870;53.996;10.784;2023-09-19T11:29:30;10.40;;;2.97;;
3708;SDS011;1870;53.996;10.784;2023-09-19T11:31:59;12.37;;;3.60;;
3708;SDS011;1870;53.996;10.784;2023-09-19T11:34:40;9.43;;;3.30;;
3708;SDS011;1870;53.996;10.784;2023-09-19T11:39:36;8.00;;;2.97;;
3708;SDS011;1870;53.996;10.784;2023-09-19T11:45:06;7.13;;;2.83;;
3708;SDS011;1870;53.996;10.784;2023-09-19T11:47:32;5.33;;;3.10;;
3708;SDS011;1870;53.996;10.784;2023-09-19T11:50:00;9.30;;;3.53;;
3708;SDS011;1870;53.996;10.784;2023-09-19T11:52:26;10.63;;;3.97;;
3708;SDS011;1870;53.996;10.784;2023-09-19T11:54:59;13.40;;;5.10;;
3708;SDS011;1870;53.996;10.784;2023-09-19T11:57:27;10.37;;;4.10;;
3708;SDS011;1870;53.996;10.784;2023-09-19T11:59:55;7.83;;;4.57;;
3708;SDS011;1870;53.996;10.784;2023-09-19T12:02:38;9.50;;;3.57;;
3708;SDS011;1870;53.996;10.784;2023-09-19T12:05:06;5.93;;;3.53;;
3708;SDS011;1870;53.996;10.784;2023-09-19T12:07:42;9.40;;;3.80;;
3708;SDS011;1870;53.996;10.784;2023-09-19T12:10:13;7.20;;;3.70;;
3708;SDS011;1870;53.996;10.784;2023-09-19T12:12:39;6.60;;;3.00;;
3708;SDS011;1870;53.996;10.784;2023-09-19T12:15:07;4.40;;;2.80;;
3708;SDS011;1870;53.996;10.784;2023-09-19T12:17:36;7.10;;;3.67;;
3708;SDS011;1870;53.996;10.784;2023-09-19T12:20:11;5.63;;;3.50;;
3708;SDS011;1870;53.996;10.784;2023-09-19T12:22:45;7.80;;;3.87;;
3708;SDS011;1870;53.996;10.784;2023-09-19T12:25:12;6.03;;;4.40;;
3708;SDS011;1870;53.996;10.784;2023-09-19T12:27:44;9.53;;;3.93;;
3708;SDS011;1870;53.996;10.784;2023-09-19T12:30:12;10.23;;;3.37;;
3708;SDS011;1870;53.996;10.784;2023-09-19T12:32:42;6.37;;;4.17;;
3708;SDS011;1870;53.996;10.784;2023-09-19T12:35:09;10.40;;;3.87;;
3708;SDS011;1870;53.996;10.784;2023-09-19T12:37:44;8.63;;;4.43;;
3708;SDS011;1870;53.996;10.784;2023-09-19T12:40:18;5.17;;;3.43;;
3708;SDS011;1870;53.996;10.784;2023-09-19T12:42:52;8.70;;;3.63;;
3708;SDS011;1870;53.996;10.784;2023-09-19T12:45:23;10.33;;;4.47;;
3708;SDS011;1870;53.996;10.784;2023-09-19T12:51:00;6.73;;;3.80;;
3708;SDS011;1870;53.996;10.784;2023-09-19T12:53:32;6.60;;;3.40;;
3708;SDS011;1870;53.996;10.784;2023-09-19T12:56:05;6.40;;;3.33;;
3708;SDS011;1870;53.996;10.784;2023-09-19T12:58:33;9.67;;;3.40;;
3708;SDS011;1870;53.996;10.784;2023-09-19T13:01:00;8.47;;;3.43;;
3708;SDS011;1870;53.996;10.784;2023-09-19T13:03:30;5.70;;;3.07;;
3708;SDS011;1870;53.996;10.784;2023-09-19T13:06:04;5.40;;;3.20;;
3708;SDS011;1870;53.996;10.784;2023-09-19T13:08:34;10.53;;;3.50;;
3708;SDS011;1870;53.996;10.784;2023-09-19T13:13:42;7.27;;;4.33;;
3708;SDS011;1870;53.996;10.784;2023-09-19T13:16:10;4.10;;;3.70;;
3708;SDS011;1870;53.996;10.784;2023-09-19T13:18:46;12.70;;;4.50;;
3708;SDS011;1870;53.996;10.784;2023-09-19T13:21:16;9.50;;;4.07;;
3708;SDS011;1870;53.996;10.784;2023-09-19T13:23:52;3.77;;;3.47;;
3708;SDS011;1870;53.996;10.784;2023-09-19T13:26:27;7.00;;;3.77;;
3708;SDS011;1870;53.996;10.784;2023-09-19T13:28:53;6.83;;;2.90;;
3708;SDS011;1870;53.996;10.784;2023-09-19T13:31:19;7.80;;;3.07;;
3708;SDS011;1870;53.996;10.784;2023-09-19T13:33:47;7.93;;;4.07;;
3708;SDS011;1870;53.996;10.784;2023-09-19T13:36:13;5.00;;;3.20;;
3708;SDS011;1870;53.996;10.784;2023-09-19T13:38:39;13.80;;;3.70;;
3708;SDS011;1870;53.996;10.784;2023-09-19T13:41:07;4.77;;;2.93;;
3708;SDS011;1870;53.996;10.784;2023-09-19T13:43:39;7.90;;;3.77;;
3708;SDS011;1870;53.996;10.784;2023-09-19T13:46:05;8.53;;;3.40;;
3708;SDS011;1870;53.996;10.784;2023-09-19T13:48:37;10.03;;;3.83;;
3708;SDS011;1870;53.996;10.784;2023-09-19T13:51:03;7.67;;;4.00;;
3708;SDS011;1870;53.996;10.784;2023-09-19T13:53:29;10.67;;;3.57;;
3708;SDS011;1870;53.996;10.784;2023-09-19T13:55:55;5.60;;;3.70;;
3708;SDS011;1870;53.996;10.784;2023-09-19T13:58:21;8.90;;;3.47;;
3708;SDS011;1870;53.996;10.784;2023-09-19T14:00:48;7.87;;;3.90;;
3708;SDS011;1870;53.996;10.784;2023-09-19T14:03:14;11.40;;;5.20;;
3708;SDS011;1870;53.996;10.784;2023-09-19T14:05:41;10.40;;;3.30;;
3708;SDS011;1870;53.996;10.784;2023-09-19T14:08:07;7.37;;;4.10;;
3708;SDS011;1870;53.996;10.784;2023-09-19T14:10:33;5.03;;;3.80;;
3708;SDS011;1870;53.996;10.784;2023-09-19T14:13:00;7.00;;;4.00;;
3708;SDS011;1870;53.996;10.784;2023-09-19T14:15:26;7.97;;;4.30;;
3708;SDS011;1870;53.996;10.784;2023-09-19T14:17:58;7.47;;;4.20;;
3708;SDS011;1870;53.996;10.784;2023-09-19T14:20:25;11.27;;;4.70;;
3708;SDS011;1870;53.996;10.784;2023-09-19T14:22:55;5.83;;;3.77;;
3708;SDS011;1870;53.996;10.784;2023-09-19T14:25:23;11.27;;;4.53;;
3708;SDS011;1870;53.996;10.784;2023-09-19T14:27:49;4.53;;;3.30;;
3708;SDS011;1870;53.996;10.784;2023-09-19T14:30:15;6.10;;;4.30;;
3708;SDS011;1870;53.996;10.784;2023-09-19T14:32:41;8.70;;;3.60;;
3708;SDS011;1870;53.996;10.784;2023-09-19T14:35:07;9.97;;;5.33;;
3708;SDS011;1870;53.996;10.784;2023-09-19T14:37:34;6.40;;;4.33;;
3708;SDS011;1870;53.996;10.784;2023-09-19T14:40:00;8.30;;;4.40;;
3708;SDS011;1870;53.996;10.784;2023-09-19T14:42:28;7.30;;;3.90;;
3708;SDS011;1870;53.996;10.784;2023-09-19T14:44:54;8.13;;;3.83;;
3708;SDS011;1870;53.996;10.784;2023-09-19T14:47:20;6.20;;;4.10;;
3708;SDS011;1870;53.996;10.784;2023-09-19T14:49:46;8.43;;;4.13;;
3708;SDS011;1870;53.996;10.784;2023-09-19T14:52:11;15.30;;;4.10;;
3708;SDS011;1870;53.996;10.784;2023-09-19T14:54:40;7.53;;;4.17;;
3708;SDS011;1870;53.996;10.784;2023-09-19T14:57:06;8.73;;;4.10;;
3708;SDS011;1870;53.996;10.784;2023-09-19T14:59:34;8.57;;;4.43;;
3708;SDS011;1870;53.996;10.784;2023-09-19T15:02:03;7.30;;;4.07;;
3708;SDS011;1870;53.996;10.784;2023-09-19T15:04:29;7.97;;;4.77;;
3708;SDS011;1870;53.996;10.784;2023-09-19T15:06:55;7.60;;;4.10;;
3708;SDS011;1870;53.996;10.784;2023-09-19T15:09:21;8.53;;;4.40;;
3708;SDS011;1870;53.996;10.784;2023-09-19T15:11:54;6.30;;;3.83;;
3708;SDS011;1870;53.996;10.784;2023-09-19T15:14:23;5.73;;;3.80;;
3708;SDS011;1870;53.996;10.784;2023-09-19T15:16:50;8.90;;;4.17;;
3708;SDS011;1870;53.996;10.784;2023-09-19T15:19:15;4.67;;;4.00;;
3708;SDS011;1870;53.996;10.784;2023-09-19T15:21:42;9.63;;;3.70;;
3708;SDS011;1870;53.996;10.784;2023-09-19T15:24:08;4.47;;;4.03;;
3708;SDS011;1870;53.996;10.784;2023-09-19T15:26:35;6.60;;;4.20;;
3708;SDS011;1870;53.996;10.784;2023-09-19T15:29:04;6.40;;;4.43;;
3708;SDS011;1870;53.996;10.784;2023-09-19T15:31:31;11.00;;;5.50;;
3708;SDS011;1870;53.996;10.784;2023-09-19T15:33:57;8.70;;;4.00;;
3708;SDS011;1870;53.996;10.784;2023-09-19T15:36:22;6.77;;;3.70;;
3708;SDS011;1870;53.996;10.784;2023-09-19T15:39:02;10.40;;;4.03;;
3708;SDS011;1870;53.996;10.784;2023-09-19T15:44:13;10.20;;;3.93;;
3708;SDS011;1870;53.996;10.784;2023-09-19T15:46:40;5.57;;;4.20;;
3708;SDS011;1870;53.996;10.784;2023-09-19T15:49:07;7.77;;;3.70;;
3708;SDS011;1870;53.996;10.784;2023-09-19T15:51:33;12.50;;;3.23;;
3708;SDS011;1870;53.996;10.784;2023-09-19T15:54:00;4.80;;;3.00;;